sensor_id;sensor_type;location;lat;lon;timestamp;P1;durP1;ratioP1;P2;durP2;ratioP2
52072;SDS011;38074;51.232;6.826;2023-06-22T00:06:01;2.77;;;1.47;;
52072;SDS011;38074;51.232;6.826;2023-06-22T00:13:16;3.03;;;1.53;;
52072;SDS011;38074;51.232;6.826;2023-06-22T00:20:32;4.10;;;1.60;;
52072;SDS011;38074;51.232;6.826;2023-06-22T00:27:51;3.50;;;1.40;;
52072;SDS011;38074;51.232;6.826;2023-06-22T00:35:07;2.13;;;1.10;;
52072;SDS011;38074;51.232;6.826;2023-06-22T00:49:39;3.75;;;1.65;;
52072;SDS011;38074;51.232;6.826;2023-06-22T00:56:54;3.63;;;1.93;;
52072;SDS011;38074;51.232;6.826;2023-06-22T01:04:11;3.97;;;2.03;;
52072;SDS011;38074;51.232;6.826;2023-06-22T01:11:36;2.87;;;1.80;;
52072;SDS011;38074;51.232;6.826;2023-06-22T01:19:00;3.83;;;1.90;;
52072;SDS011;38074;51.232;6.826;2023-06-22T01:34:24;3.20;;;1.83;;
52072;SDS011;38074;51.232;6.826;2023-06-22T01:41:41;6.22;;;2.30;;
52072;SDS011;38074;51.232;6.826;2023-06-22T01:48:57;3.90;;;2.72;;
52072;SDS011;38074;51.232;6.826;2023-06-22T01:56:15;5.77;;;2.30;;
52072;SDS011;38074;51.232;6.826;2023-06-22T02:03:34;3.63;;;1.85;;
52072;SDS011;38074;51.232;6.826;2023-06-22T02:10:53;4.45;;;1.85;;
52072;SDS011;38074;51.232;6.826;2023-06-22T02:18:12;4.25;;;2.08;;
52072;SDS011;38074;51.232;6.826;2023-06-22T02:25:28;4.03;;;2.08;;
52072;SDS011;38074;51.232;6.826;2023-06-22T02:32:44;4.33;;;1.97;;
52072;SDS011;38074;51.232;6.826;2023-06-22T02:39:59;5.37;;;2.90;;
52072;SDS011;38074;51.232;6.826;2023-06-22T02:47:15;4.23;;;2.30;;
52072;SDS011;38074;51.232;6.826;2023-06-22T02:54:30;4.27;;;1.77;;
52072;SDS011;38074;51.232;6.826;2023-06-22T03:01:46;3.10;;;1.90;;
52072;SDS011;38074;51.232;6.826;2023-06-22T03:09:02;3.10;;;2.00;;
52072;SDS011;38074;51.232;6.826;2023-06-22T03:16:19;5.60;;;2.53;;
52072;SDS011;38074;51.232;6.826;2023-06-22T03:23:35;4.60;;;2.10;;
52072;SDS011;38074;51.232;6.826;2023-06-22T03:30:51;3.88;;;2.20;;
52072;SDS011;38074;51.232;6.826;2023-06-22T03:38:06;3.53;;;2.00;;
52072;SDS011;38074;51.232;6.826;2023-06-22T03:45:22;2.73;;;1.90;;
52072;SDS011;38074;51.232;6.826;2023-06-22T03:52:37;4.70;;;2.60;;
52072;SDS011;38074;51.232;6.826;2023-06-22T03:59:54;5.73;;;2.53;;
52072;SDS011;38074;51.232;6.826;2023-06-22T04:07:11;5.70;;;3.10;;
52072;SDS011;38074;51.232;6.826;2023-06-22T04:14:27;4.73;;;2.17;;
52072;SDS011;38074;51.232;6.826;2023-06-22T04:21:43;5.27;;;2.67;;
52072;SDS011;38074;51.232;6.826;2023-06-22T04:29:03;3.92;;;1.98;;
52072;SDS011;38074;51.232;6.826;2023-06-22T04:36:20;4.80;;;2.50;;
52072;SDS011;38074;51.232;6.826;2023-06-22T04:43:36;3.40;;;1.80;;
52072;SDS011;38074;51.232;6.826;2023-06-22T04:50:51;5.07;;;2.60;;
52072;SDS011;38074;51.232;6.826;2023-06-22T04:58:07;4.57;;;2.23;;
52072;SDS011;38074;51.232;6.826;2023-06-22T05:05:23;3.97;;;2.37;;
52072;SDS011;38074;51.232;6.826;2023-06-22T05:12:39;3.40;;;2.20;;
52072;SDS011;38074;51.232;6.826;2023-06-22T05:19:55;3.13;;;2.28;;
52072;SDS011;38074;51.232;6.826;2023-06-22T05:27:11;5.80;;;3.03;;
52072;SDS011;38074;51.232;6.826;2023-06-22T05:34:27;8.20;;;3.80;;
52072;SDS011;38074;51.232;6.826;2023-06-22T05:41:42;4.23;;;2.77;;
52072;SDS011;38074;51.232;6.826;2023-06-22T05:48:59;6.25;;;3.42;;
52072;SDS011;38074;51.232;6.826;2023-06-22T05:56:15;12.73;;;3.33;;
52072;SDS011;38074;51.232;6.826;2023-06-22T06:10:47;8.23;;;4.60;;
52072;SDS011;38074;51.232;6.826;2023-06-22T06:18:02;4.77;;;3.10;;
52072;SDS011;38074;51.232;6.826;2023-06-22T06:25:20;6.32;;;3.85;;
52072;SDS011;38074;51.232;6.826;2023-06-22T06:32:37;6.05;;;3.65;;
52072;SDS011;38074;51.232;6.826;2023-06-22T06:39:53;9.13;;;4.45;;
52072;SDS011;38074;51.232;6.826;2023-06-22T06:47:08;8.93;;;4.00;;
52072;SDS011;38074;51.232;6.826;2023-06-22T06:54:24;8.17;;;5.40;;
52072;SDS011;38074;51.232;6.826;2023-06-22T07:01:40;7.30;;;5.50;;
52072;SDS011;38074;51.232;6.826;2023-06-22T07:08:55;5.87;;;4.20;;
52072;SDS011;38074;51.232;6.826;2023-06-22T07:16:11;8.83;;;6.07;;
52072;SDS011;38074;51.232;6.826;2023-06-22T07:23:26;7.83;;;5.33;;
52072;SDS011;38074;51.232;6.826;2023-06-22T07:30:42;10.73;;;5.07;;
52072;SDS011;38074;51.232;6.826;2023-06-22T07:37:58;7.60;;;3.73;;
52072;SDS011;38074;51.232;6.826;2023-06-22T07:45:14;6.47;;;3.85;;
52072;SDS011;38074;51.232;6.826;2023-06-22T07:52:30;7.50;;;4.33;;
52072;SDS011;38074;51.232;6.826;2023-06-22T08:07:01;8.05;;;5.75;;
52072;SDS011;38074;51.232;6.826;2023-06-22T08:14:18;9.25;;;6.07;;
52072;SDS011;38074;51.232;6.826;2023-06-22T08:21:34;6.20;;;4.80;;
52072;SDS011;38074;51.232;6.826;2023-06-22T08:28:49;7.77;;;4.73;;
52072;SDS011;38074;51.232;6.826;2023-06-22T08:36:05;7.73;;;4.63;;
52072;SDS011;38074;51.232;6.826;2023-06-22T08:43:21;8.10;;;5.32;;
52072;SDS011;38074;51.232;6.826;2023-06-22T08:50:36;8.07;;;5.17;;
52072;SDS011;38074;51.232;6.826;2023-06-22T08:57:52;6.00;;;4.47;;
52072;SDS011;38074;51.232;6.826;2023-06-22T09:05:07;9.37;;;4.53;;
52072;SDS011;38074;51.232;6.826;2023-06-22T09:12:23;9.07;;;5.80;;
52072;SDS011;38074;51.232;6.826;2023-06-22T09:19:41;7.57;;;4.70;;
52072;SDS011;38074;51.232;6.826;2023-06-22T09:26:57;6.37;;;5.00;;
52072;SDS011;38074;51.232;6.826;2023-06-22T09:34:12;6.30;;;4.40;;
52072;SDS011;38074;51.232;6.826;2023-06-22T09:41:28;7.10;;;4.50;;
52072;SDS011;38074;51.232;6.826;2023-06-22T09:48:44;7.40;;;5.03;;
52072;SDS011;38074;51.232;6.826;2023-06-22T09:55:59;5.37;;;4.53;;
52072;SDS011;38074;51.232;6.826;2023-06-22T10:03:15;5.53;;;4.90;;
52072;SDS011;38074;51.232;6.826;2023-06-22T10:10:31;6.70;;;4.20;;
52072;SDS011;38074;51.232;6.826;2023-06-22T10:17:46;6.13;;;5.17;;
52072;SDS011;38074;51.232;6.826;2023-06-22T10:25:02;6.53;;;4.50;;
52072;SDS011;38074;51.232;6.826;2023-06-22T10:32:18;6.27;;;5.30;;
52072;SDS011;38074;51.232;6.826;2023-06-22T10:39:33;7.67;;;5.40;;
52072;SDS011;38074;51.232;6.826;2023-06-22T10:46:49;8.20;;;5.13;;
52072;SDS011;38074;51.232;6.826;2023-06-22T10:54:04;6.40;;;5.10;;
52072;SDS011;38074;51.232;6.826;2023-06-22T11:01:20;8.20;;;5.27;;
52072;SDS011;38074;51.232;6.826;2023-06-22T11:08:36;7.65;;;5.22;;
52072;SDS011;38074;51.232;6.826;2023-06-22T11:15:52;13.13;;;8.37;;
52072;SDS011;38074;51.232;6.826;2023-06-22T11:23:07;8.93;;;6.27;;
52072;SDS011;38074;51.232;6.826;2023-06-22T11:30:23;13.63;;;8.43;;
52072;SDS011;38074;51.232;6.826;2023-06-22T11:37:38;14.20;;;8.20;;
52072;SDS011;38074;51.232;6.826;2023-06-22T11:44:54;12.40;;;8.23;;
52072;SDS011;38074;51.232;6.826;2023-06-22T11:52:09;12.97;;;9.23;;
52072;SDS011;38074;51.232;6.826;2023-06-22T11:59:25;12.70;;;10.03;;
52072;SDS011;38074;51.232;6.826;2023-06-22T12:06:41;17.53;;;12.73;;
52072;SDS011;38074;51.232;6.826;2023-06-22T12:13:58;18.98;;;13.65;;
52072;SDS011;38074;51.232;6.826;2023-06-22T12:21:16;11.05;;;9.23;;
52072;SDS011;38074;51.232;6.826;2023-06-22T12:28:32;13.67;;;8.27;;
52072;SDS011;38074;51.232;6.826;2023-06-22T12:35:47;11.00;;;8.80;;
52072;SDS011;38074;51.232;6.826;2023-06-22T12:43:04;13.50;;;10.85;;
52072;SDS011;38074;51.232;6.826;2023-06-22T12:50:19;17.07;;;13.00;;
52072;SDS011;38074;51.232;6.826;2023-06-22T12:57:35;17.57;;;13.03;;
52072;SDS011;38074;51.232;6.826;2023-06-22T13:04:50;13.23;;;10.73;;
52072;SDS011;38074;51.232;6.826;2023-06-22T13:12:06;11.37;;;7.53;;
52072;SDS011;38074;51.232;6.826;2023-06-22T13:19:22;9.73;;;6.90;;
52072;SDS011;38074;51.232;6.826;2023-06-22T13:26:37;9.20;;;6.20;;
52072;SDS011;38074;51.232;6.826;2023-06-22T13:33:53;7.77;;;6.00;;
52072;SDS011;38074;51.232;6.826;2023-06-22T13:41:08;9.07;;;6.50;;
52072;SDS011;38074;51.232;6.826;2023-06-22T13:48:24;10.00;;;6.17;;
52072;SDS011;38074;51.232;6.826;2023-06-22T13:55:41;7.47;;;5.32;;
52072;SDS011;38074;51.232;6.826;2023-06-22T14:02:56;7.43;;;4.70;;
52072;SDS011;38074;51.232;6.826;2023-06-22T14:10:12;9.87;;;5.17;;
52072;SDS011;38074;51.232;6.826;2023-06-22T14:17:27;7.73;;;4.83;;
52072;SDS011;38074;51.232;6.826;2023-06-22T14:24:43;7.07;;;4.20;;
52072;SDS011;38074;51.232;6.826;2023-06-22T14:31:58;5.13;;;4.03;;
52072;SDS011;38074;51.232;6.826;2023-06-22T14:39:14;5.70;;;3.90;;
52072;SDS011;38074;51.232;6.826;2023-06-22T14:46:29;6.47;;;3.87;;
52072;SDS011;38074;51.232;6.826;2023-06-22T14:53:45;4.20;;;3.30;;
52072;SDS011;38074;51.232;6.826;2023-06-22T15:01:04;5.10;;;4.00;;
52072;SDS011;38074;51.232;6.826;2023-06-22T15:08:20;5.18;;;4.32;;
52072;SDS011;38074;51.232;6.826;2023-06-22T15:15:36;6.03;;;4.20;;
52072;SDS011;38074;51.232;6.826;2023-06-22T15:22:51;6.77;;;4.20;;
52072;SDS011;38074;51.232;6.826;2023-06-22T15:30:07;5.10;;;3.50;;
52072;SDS011;38074;51.232;6.826;2023-06-22T15:37:23;5.55;;;3.88;;
52072;SDS011;38074;51.232;6.826;2023-06-22T15:44:38;5.80;;;3.57;;
52072;SDS011;38074;51.232;6.826;2023-06-22T15:51:54;8.13;;;4.70;;
52072;SDS011;38074;51.232;6.826;2023-06-22T15:59:09;13.83;;;10.50;;
52072;SDS011;38074;51.232;6.826;2023-06-22T16:06:25;11.30;;;7.60;;
52072;SDS011;38074;51.232;6.826;2023-06-22T16:13:41;11.63;;;8.60;;
52072;SDS011;38074;51.232;6.826;2023-06-22T16:20:56;12.87;;;9.47;;
52072;SDS011;38074;51.232;6.826;2023-06-22T16:28:12;14.20;;;9.83;;
52072;SDS011;38074;51.232;6.826;2023-06-22T16:35:28;13.83;;;10.23;;
52072;SDS011;38074;51.232;6.826;2023-06-22T16:42:44;16.25;;;11.38;;
52072;SDS011;38074;51.232;6.826;2023-06-22T16:50:04;14.48;;;12.27;;
52072;SDS011;38074;51.232;6.826;2023-06-22T16:57:20;13.17;;;11.33;;
52072;SDS011;38074;51.232;6.826;2023-06-22T17:11:52;16.90;;;13.03;;
52072;SDS011;38074;51.232;6.826;2023-06-22T17:19:09;12.48;;;10.27;;
52072;SDS011;38074;51.232;6.826;2023-06-22T17:26:25;16.50;;;12.13;;
52072;SDS011;38074;51.232;6.826;2023-06-22T17:33:41;14.57;;;10.47;;
52072;SDS011;38074;51.232;6.826;2023-06-22T17:41:00;12.67;;;9.87;;
52072;SDS011;38074;51.232;6.826;2023-06-22T17:48:19;11.30;;;8.60;;
52072;SDS011;38074;51.232;6.826;2023-06-22T17:55:37;12.13;;;8.77;;
52072;SDS011;38074;51.232;6.826;2023-06-22T18:02:54;11.13;;;9.20;;
52072;SDS011;38074;51.232;6.826;2023-06-22T18:10:10;12.45;;;9.43;;
52072;SDS011;38074;51.232;6.826;2023-06-22T18:17:25;11.38;;;8.52;;
52072;SDS011;38074;51.232;6.826;2023-06-22T18:24:41;12.73;;;9.30;;
52072;SDS011;38074;51.232;6.826;2023-06-22T18:31:57;11.90;;;10.63;;
52072;SDS011;38074;51.232;6.826;2023-06-22T18:39:13;13.53;;;10.60;;
52072;SDS011;38074;51.232;6.826;2023-06-22T18:53:46;11.43;;;8.97;;
52072;SDS011;38074;51.232;6.826;2023-06-22T19:01:17;10.35;;;8.13;;
52072;SDS011;38074;51.232;6.826;2023-06-22T19:16:30;7.72;;;6.07;;
52072;SDS011;38074;51.232;6.826;2023-06-22T19:23:45;8.23;;;5.18;;
52072;SDS011;38074;51.232;6.826;2023-06-22T19:31:01;8.68;;;4.50;;
52072;SDS011;38074;51.232;6.826;2023-06-22T19:38:18;6.45;;;4.55;;
52072;SDS011;38074;51.232;6.826;2023-06-22T19:45:38;7.50;;;4.90;;
52072;SDS011;38074;51.232;6.826;2023-06-22T19:52:55;8.38;;;5.30;;
52072;SDS011;38074;51.232;6.826;2023-06-22T20:00:11;8.25;;;5.25;;
52072;SDS011;38074;51.232;6.826;2023-06-22T20:07:33;8.13;;;5.15;;
52072;SDS011;38074;51.232;6.826;2023-06-22T20:14:51;7.97;;;5.18;;
52072;SDS011;38074;51.232;6.826;2023-06-22T20:22:06;7.30;;;5.53;;
52072;SDS011;38074;51.232;6.826;2023-06-22T20:29:29;5.72;;;4.32;;
52072;SDS011;38074;51.232;6.826;2023-06-22T20:36:45;6.57;;;4.43;;
52072;SDS011;38074;51.232;6.826;2023-06-22T20:44:01;7.97;;;5.10;;
52072;SDS011;38074;51.232;6.826;2023-06-22T20:51:20;6.43;;;5.05;;
52072;SDS011;38074;51.232;6.826;2023-06-22T20:58:35;6.43;;;4.50;;
52072;SDS011;38074;51.232;6.826;2023-06-22T21:05:51;5.87;;;3.93;;
52072;SDS011;38074;51.232;6.826;2023-06-22T21:13:07;6.85;;;4.55;;
52072;SDS011;38074;51.232;6.826;2023-06-22T21:20:24;4.35;;;2.85;;
52072;SDS011;38074;51.232;6.826;2023-06-22T21:27:40;5.37;;;3.57;;
52072;SDS011;38074;51.232;6.826;2023-06-22T21:34:57;5.25;;;3.42;;
52072;SDS011;38074;51.232;6.826;2023-06-22T21:42:13;5.65;;;3.63;;
52072;SDS011;38074;51.232;6.826;2023-06-22T21:49:29;4.37;;;3.33;;
52072;SDS011;38074;51.232;6.826;2023-06-22T21:56:44;5.33;;;3.00;;
52072;SDS011;38074;51.232;6.826;2023-06-22T22:04:00;4.47;;;3.17;;
52072;SDS011;38074;51.232;6.826;2023-06-22T22:11:15;4.72;;;2.58;;
52072;SDS011;38074;51.232;6.826;2023-06-22T22:18:31;3.38;;;2.10;;
52072;SDS011;38074;51.232;6.826;2023-06-22T22:25:47;3.88;;;2.70;;
52072;SDS011;38074;51.232;6.826;2023-06-22T22:33:02;4.75;;;2.90;;
52072;SDS011;38074;51.232;6.826;2023-06-22T22:40:18;5.43;;;3.10;;
52072;SDS011;38074;51.232;6.826;2023-06-22T22:47:34;4.45;;;2.50;;
52072;SDS011;38074;51.232;6.826;2023-06-22T22:54:49;6.40;;;4.43;;
52072;SDS011;38074;51.232;6.826;2023-06-22T23:02:05;3.23;;;2.10;;
52072;SDS011;38074;51.232;6.826;2023-06-22T23:09:22;4.53;;;3.00;;
52072;SDS011;38074;51.232;6.826;2023-06-22T23:16:38;4.77;;;3.10;;
52072;SDS011;38074;51.232;6.826;2023-06-22T23:23:54;6.13;;;2.72;;
52072;SDS011;38074;51.232;6.826;2023-06-22T23:31:10;4.30;;;3.43;;
52072;SDS011;38074;51.232;6.826;2023-06-22T23:38:26;3.30;;;2.55;;
52072;SDS011;38074;51.232;6.826;2023-06-22T23:45:41;3.17;;;2.17;;
52072;SDS011;38074;51.232;6.826;2023-06-22T23:52:57;5.97;;;1.90;;
